To NAV CANADA Home Page Login to a new session Search on AWWS site Feedback and Comments Disclaimer Vers la page française équivalente Tips FAQ What's new on the site To the Forecasts and Observations / NOTAM section To "File a Flight Plan" website Publications and other links Update of the User's profile FIC Telephone Numbers My Weather Data Folder Route Weather Data Regional Weather Data Local Weather Data To the Forecasts and Observations / NOTAM section
Request Generated 05/26/2015 at 11:19:55 UTC . Weather information available at that time is displayed.

METAR/TAF

CAPE DORSET/NU    

METAR CYTE 261100Z AUTO 06016KT 3SM -SN SCT039 BKN049 M07/M08 A2962
RMK SLP034=
SPECI CYTE 261055Z AUTO 06016KT 3SM -SN BKN037 M07/M08 A2962 RMK
SLP033=
SPECI CYTE 261037Z AUTO 06016G21KT 2SM -SN FEW008 BKN037 M06/M07
A2961 RMK VIS VRB 1-3 SLP030=
SPECI CYTE 261029Z AUTO 07017G23KT 1 1/2SM -SN SCT011 OVC035 M06/M07
A2960 RMK VIS VRB 1-2 SLP029=
METAR CYTE 261000Z AUTO 08023G28KT 1/2SM SN SCT010 BKN014 BKN020
OVC025 M05/M07 A2959 RMK SLP025=
SPECI CYTE 260958Z AUTO 08023G28KT 3/8SM SN SCT010 BKN014 OVC022
M05/M07 A2959 RMK SLP024=
SPECI CYTE 260953Z AUTO 08023G28KT 1/4SM +SN SCT008 BKN012 OVC019
M05/M07 A2959 RMK SLP023=
SPECI CYTE 260952Z AUTO 08022G28KT 1/4SM +SN BKN008 OVC019 M05/M06
A2959 RMK SLP023=
METAR CYTE 260900Z AUTO 10022G27KT 3/4SM -SN SCT012 SCT017 OVC023
M05/M07 A2957 RMK SLP017=

TAF AMD CYTE 261039Z 2610/2619 07020KT 6SM -SN OVC025 TEMPO 2610/2611
1SM -SN OVC012
FM261100 07015KT P6SM OVC015 TEMPO 2611/2619 4SM -SN OVC008
RMK FCST BASED ON AUTO OBS. NXT FCST BY 261300Z=
Your time UTC time
Weather data provided by Environment Canada and NAV CANADA